sensor_id;sensor_type;location;lat;lon;timestamp;pressure;altitude;pressure_sealevel;temperature;humidity
22025;BME280;11176;51.448;6.650;2023-07-16T00:02:03;36812.03;;;-141.29;90.33
22025;BME280;11176;51.448;6.650;2023-07-16T00:04:33;36839.94;;;-141.29;91.36
22025;BME280;11176;51.448;6.650;2023-07-16T00:07:00;36875.84;;;-141.29;91.87
22025;BME280;11176;51.448;6.650;2023-07-16T00:09:28;36841.94;;;-141.29;92.32
22025;BME280;11176;51.448;6.650;2023-07-16T00:11:56;36895.75;;;-141.29;92.47
22025;BME280;11176;51.448;6.650;2023-07-16T00:14:23;36889.78;;;-141.29;92.99
22025;BME280;11176;51.448;6.650;2023-07-16T00:16:49;36899.75;;;-141.29;93.24
22025;BME280;11176;51.448;6.650;2023-07-16T00:19:16;36925.66;;;-141.29;93.75
22025;BME280;11176;51.448;6.650;2023-07-16T00:21:42;36923.66;;;-141.29;94.19
22025;BME280;11176;51.448;6.650;2023-07-16T00:24:09;36957.56;;;-141.29;94.86
22025;BME280;11176;51.448;6.650;2023-07-16T00:26:35;36989.44;;;-141.29;95.59
22025;BME280;11176;51.448;6.650;2023-07-16T00:29:02;37003.41;;;-141.29;96.22
22025;BME280;11176;51.448;6.650;2023-07-16T00:31:28;37043.28;;;-141.29;96.51
22025;BME280;11176;51.448;6.650;2023-07-16T00:33:55;37027.31;;;-141.29;96.87
22025;BME280;11176;51.448;6.650;2023-07-16T00:36:21;37051.25;;;-141.29;97.16
22025;BME280;11176;51.448;6.650;2023-07-16T00:38:47;37057.22;;;-141.29;97.27
22025;BME280;11176;51.448;6.650;2023-07-16T00:41:14;37109.06;;;-141.29;97.48
22025;BME280;11176;51.448;6.650;2023-07-16T00:43:41;37136.97;;;-141.29;97.66
22025;BME280;11176;51.448;6.650;2023-07-16T00:46:08;37152.91;;;-141.29;98.17
22025;BME280;11176;51.448;6.650;2023-07-16T00:48:35;37162.88;;;-141.29;98.45
22025;BME280;11176;51.448;6.650;2023-07-16T00:51:02;37208.75;;;-141.29;98.60
22025;BME280;11176;51.448;6.650;2023-07-16T00:53:30;37198.78;;;-141.29;98.67
22025;BME280;11176;51.448;6.650;2023-07-16T00:55:56;37258.56;;;-141.29;98.86
22025;BME280;11176;51.448;6.650;2023-07-16T00:58:23;37270.53;;;-141.29;98.91
22025;BME280;11176;51.448;6.650;2023-07-16T01:00:50;37290.47;;;-141.29;98.84
22025;BME280;11176;51.448;6.650;2023-07-16T01:03:16;37302.44;;;-141.29;99.02
22025;BME280;11176;51.448;6.650;2023-07-16T01:08:31;37358.25;;;-141.29;99.16
22025;BME280;11176;51.448;6.650;2023-07-16T01:11:00;37374.22;;;-141.29;99.42
22025;BME280;11176;51.448;6.650;2023-07-16T01:13:32;37410.09;;;-141.29;99.71
22025;BME280;11176;51.448;6.650;2023-07-16T01:15:58;37410.09;;;-141.29;99.45
22025;BME280;11176;51.448;6.650;2023-07-16T01:18:25;37432.03;;;-141.29;99.63
22025;BME280;11176;51.448;6.650;2023-07-16T01:20:52;37453.94;;;-141.29;99.92
22025;BME280;11176;51.448;6.650;2023-07-16T01:26:36;37473.88;;;-141.29;99.74
22025;BME280;11176;51.448;6.650;2023-07-16T01:29:21;37495.81;;;-141.29;99.47
22025;BME280;11176;51.448;6.650;2023-07-16T01:31:50;37493.81;;;-141.29;99.88
22025;BME280;11176;51.448;6.650;2023-07-16T01:34:18;37499.81;;;-141.29;99.73
22025;BME280;11176;51.448;6.650;2023-07-16T01:36:46;37525.72;;;-141.29;99.74
22025;BME280;11176;51.448;6.650;2023-07-16T01:39:12;37541.69;;;-141.29;99.64
22025;BME280;11176;51.448;6.650;2023-07-16T01:41:39;37553.63;;;-141.29;99.28
22025;BME280;11176;51.448;6.650;2023-07-16T01:44:06;37549.66;;;-141.29;99.09
22025;BME280;11176;51.448;6.650;2023-07-16T01:46:33;37559.63;;;-141.29;99.36
22025;BME280;11176;51.448;6.650;2023-07-16T01:48:59;37573.56;;;-141.29;99.04
22025;BME280;11176;51.448;6.650;2023-07-16T01:51:26;37577.56;;;-141.29;99.28
22025;BME280;11176;51.448;6.650;2023-07-16T01:53:53;37591.53;;;-141.29;99.16
22025;BME280;11176;51.448;6.650;2023-07-16T01:56:19;37603.47;;;-141.29;99.25
22025;BME280;11176;51.448;6.650;2023-07-16T01:58:47;37623.41;;;-141.29;99.34
22025;BME280;11176;51.448;6.650;2023-07-16T02:01:13;37621.44;;;-141.29;99.53
22025;BME280;11176;51.448;6.650;2023-07-16T02:03:40;37651.34;;;-141.29;99.51
22025;BME280;11176;51.448;6.650;2023-07-16T02:06:07;37645.34;;;-141.29;99.45
22025;BME280;11176;51.448;6.650;2023-07-16T02:08:33;37673.25;;;-141.29;99.56
22025;BME280;11176;51.448;6.650;2023-07-16T02:11:00;37695.19;;;-141.29;99.96
22025;BME280;11176;51.448;6.650;2023-07-16T02:13:27;37727.09;;;-141.29;100.00
22025;BME280;11176;51.448;6.650;2023-07-16T02:15:53;37733.09;;;-141.29;100.00
22025;BME280;11176;51.448;6.650;2023-07-16T02:18:20;37737.06;;;-141.29;100.00
22025;BME280;11176;51.448;6.650;2023-07-16T02:20:46;37782.94;;;-141.29;100.00
22025;BME280;11176;51.448;6.650;2023-07-16T02:23:13;37792.91;;;-141.29;100.00
22025;BME280;11176;51.448;6.650;2023-07-16T02:25:40;37828.78;;;-141.29;100.00
22025;BME280;11176;51.448;6.650;2023-07-16T02:28:07;37840.75;;;-141.29;100.00
22025;BME280;11176;51.448;6.650;2023-07-16T02:30:33;37872.66;;;-141.29;100.00
22025;BME280;11176;51.448;6.650;2023-07-16T02:33:00;37864.69;;;-141.29;100.00
22025;BME280;11176;51.448;6.650;2023-07-16T02:35:27;37884.63;;;-141.29;100.00
22025;BME280;11176;51.448;6.650;2023-07-16T02:37:54;37872.66;;;-141.29;99.71
22025;BME280;11176;51.448;6.650;2023-07-16T02:40:21;37872.66;;;-141.29;99.78
22025;BME280;11176;51.448;6.650;2023-07-16T02:42:47;37908.53;;;-141.29;99.69
22025;BME280;11176;51.448;6.650;2023-07-16T02:45:14;37894.59;;;-141.29;99.49
22025;BME280;11176;51.448;6.650;2023-07-16T02:47:41;37892.59;;;-141.29;99.53
22025;BME280;11176;51.448;6.650;2023-07-16T02:50:07;37898.56;;;-141.29;99.41
22025;BME280;11176;51.448;6.650;2023-07-16T02:52:34;37896.59;;;-141.29;99.05
22025;BME280;11176;51.448;6.650;2023-07-16T02:55:01;37906.56;;;-141.29;99.25
22025;BME280;11176;51.448;6.650;2023-07-16T02:57:28;37894.59;;;-141.29;99.14
22025;BME280;11176;51.448;6.650;2023-07-16T02:59:54;37916.53;;;-141.29;99.00
22025;BME280;11176;51.448;6.650;2023-07-16T03:02:21;37912.53;;;-141.29;98.89
22025;BME280;11176;51.448;6.650;2023-07-16T03:04:48;37900.56;;;-141.29;98.60
22025;BME280;11176;51.448;6.650;2023-07-16T03:07:15;37944.44;;;-141.29;98.57
22025;BME280;11176;51.448;6.650;2023-07-16T03:09:43;37914.53;;;-141.29;98.63
22025;BME280;11176;51.448;6.650;2023-07-16T03:12:09;37920.50;;;-141.29;98.53
22025;BME280;11176;51.448;6.650;2023-07-16T03:14:36;37902.56;;;-141.29;98.15
22025;BME280;11176;51.448;6.650;2023-07-16T03:17:03;37916.53;;;-141.29;98.34
22025;BME280;11176;51.448;6.650;2023-07-16T03:19:31;37916.53;;;-141.29;98.26
22025;BME280;11176;51.448;6.650;2023-07-16T03:21:57;37888.59;;;-141.29;98.19
22025;BME280;11176;51.448;6.650;2023-07-16T03:24:24;37912.53;;;-141.29;98.07
22025;BME280;11176;51.448;6.650;2023-07-16T03:26:51;37902.56;;;-141.29;98.12
22025;BME280;11176;51.448;6.650;2023-07-16T03:29:24;37900.56;;;-141.29;97.75
22025;BME280;11176;51.448;6.650;2023-07-16T03:31:51;37882.63;;;-141.29;97.38
22025;BME280;11176;51.448;6.650;2023-07-16T03:34:19;37868.66;;;-141.29;97.00
22025;BME280;11176;51.448;6.650;2023-07-16T03:36:46;37842.75;;;-141.29;97.05
22025;BME280;11176;51.448;6.650;2023-07-16T03:39:12;37780.94;;;-141.29;95.10
22025;BME280;11176;51.448;6.650;2023-07-16T03:41:39;37701.19;;;-141.29;94.14
22025;BME280;11176;51.448;6.650;2023-07-16T03:44:05;37657.31;;;-141.29;93.16
22025;BME280;11176;51.448;6.650;2023-07-16T03:46:34;37601.50;;;-141.29;91.95
22025;BME280;11176;51.448;6.650;2023-07-16T03:49:01;37541.69;;;-141.29;91.40
22025;BME280;11176;51.448;6.650;2023-07-16T03:51:28;37517.75;;;-141.29;90.91
22025;BME280;11176;51.448;6.650;2023-07-16T03:53:55;37473.88;;;-141.29;89.92
22025;BME280;11176;51.448;6.650;2023-07-16T03:56:21;37453.94;;;-141.29;89.60
22025;BME280;11176;51.448;6.650;2023-07-16T03:58:48;37430.03;;;-141.29;89.43
22025;BME280;11176;51.448;6.650;2023-07-16T04:01:16;37404.09;;;-141.29;89.69
22025;BME280;11176;51.448;6.650;2023-07-16T04:03:43;37445.97;;;-141.29;89.60
22025;BME280;11176;51.448;6.650;2023-07-16T04:06:10;37428.03;;;-141.29;90.01
22025;BME280;11176;51.448;6.650;2023-07-16T04:08:37;37461.94;;;-141.29;90.18
22025;BME280;11176;51.448;6.650;2023-07-16T04:11:04;37428.03;;;-141.29;90.26
22025;BME280;11176;51.448;6.650;2023-07-16T04:13:31;37442.00;;;-141.29;89.77
22025;BME280;11176;51.448;6.650;2023-07-16T04:15:58;37392.16;;;-141.29;89.90
22025;BME280;11176;51.448;6.650;2023-07-16T04:18:25;37370.22;;;-141.29;88.26
22025;BME280;11176;51.448;6.650;2023-07-16T04:20:52;37320.38;;;-141.29;87.59
22025;BME280;11176;51.448;6.650;2023-07-16T04:23:20;37310.41;;;-141.29;86.74
22025;BME280;11176;51.448;6.650;2023-07-16T04:25:46;37298.44;;;-141.29;86.17
22025;BME280;11176;51.448;6.650;2023-07-16T04:28:13;37276.53;;;-141.29;86.21
22025;BME280;11176;51.448;6.650;2023-07-16T04:30:39;37266.56;;;-141.29;86.33
22025;BME280;11176;51.448;6.650;2023-07-16T04:33:06;37276.53;;;-141.29;86.61
22025;BME280;11176;51.448;6.650;2023-07-16T04:35:33;37270.53;;;-141.29;86.92
22025;BME280;11176;51.448;6.650;2023-07-16T04:37:59;37258.56;;;-141.29;86.35
22025;BME280;11176;51.448;6.650;2023-07-16T04:40:28;37266.56;;;-141.29;86.35
22025;BME280;11176;51.448;6.650;2023-07-16T04:42:55;37262.56;;;-141.29;86.54
22025;BME280;11176;51.448;6.650;2023-07-16T04:45:22;37246.63;;;-141.29;86.81
22025;BME280;11176;51.448;6.650;2023-07-16T04:47:48;37222.69;;;-141.29;86.75
22025;BME280;11176;51.448;6.650;2023-07-16T04:50:15;37246.63;;;-141.29;86.60
22025;BME280;11176;51.448;6.650;2023-07-16T04:52:41;37198.78;;;-141.29;85.94
22025;BME280;11176;51.448;6.650;2023-07-16T04:55:08;37232.66;;;-141.29;85.99
22025;BME280;11176;51.448;6.650;2023-07-16T04:57:34;37152.91;;;-141.29;83.96
22025;BME280;11176;51.448;6.650;2023-07-16T05:00:02;37154.91;;;-141.29;83.15
22025;BME280;11176;51.448;6.650;2023-07-16T05:02:29;37121.03;;;-141.29;81.65
22025;BME280;11176;51.448;6.650;2023-07-16T05:04:56;37123.00;;;-141.29;81.48
22025;BME280;11176;51.448;6.650;2023-07-16T05:07:22;37119.03;;;-141.29;81.30
22025;BME280;11176;51.448;6.650;2023-07-16T05:09:49;37111.06;;;-141.29;81.06
22025;BME280;11176;51.448;6.650;2023-07-16T05:12:15;37111.06;;;-141.29;81.49
22025;BME280;11176;51.448;6.650;2023-07-16T05:14:46;37099.09;;;-141.29;82.17
22025;BME280;11176;51.448;6.650;2023-07-16T05:17:14;37095.09;;;-141.29;82.03
22025;BME280;11176;51.448;6.650;2023-07-16T05:19:41;37099.09;;;-141.29;82.06
22025;BME280;11176;51.448;6.650;2023-07-16T05:22:08;37111.06;;;-141.29;82.23
22025;BME280;11176;51.448;6.650;2023-07-16T05:24:35;37119.03;;;-141.29;82.64
22025;BME280;11176;51.448;6.650;2023-07-16T05:27:01;37107.06;;;-141.29;82.60
22025;BME280;11176;51.448;6.650;2023-07-16T05:29:28;37123.00;;;-141.29;82.19
22025;BME280;11176;51.448;6.650;2023-07-16T05:31:55;37111.06;;;-141.29;82.00
22025;BME280;11176;51.448;6.650;2023-07-16T05:34:21;37115.03;;;-141.29;81.73
22025;BME280;11176;51.448;6.650;2023-07-16T05:36:48;37071.19;;;-141.29;81.53
22025;BME280;11176;51.448;6.650;2023-07-16T05:39:14;37099.09;;;-141.29;81.60
22025;BME280;11176;51.448;6.650;2023-07-16T05:41:41;37079.16;;;-141.29;80.80
22025;BME280;11176;51.448;6.650;2023-07-16T05:44:08;37059.22;;;-141.29;80.62
22025;BME280;11176;51.448;6.650;2023-07-16T05:46:35;37079.16;;;-141.29;79.86
22025;BME280;11176;51.448;6.650;2023-07-16T05:49:01;37043.28;;;-141.29;79.08
22025;BME280;11176;51.448;6.650;2023-07-16T05:51:28;37051.25;;;-141.29;79.16
22025;BME280;11176;51.448;6.650;2023-07-16T05:53:54;37029.31;;;-141.29;78.32
22025;BME280;11176;51.448;6.650;2023-07-16T05:56:21;36983.47;;;-141.29;76.50
22025;BME280;11176;51.448;6.650;2023-07-16T05:58:47;37009.38;;;-141.29;76.52
22025;BME280;11176;51.448;6.650;2023-07-16T06:01:14;36943.59;;;-141.29;75.54
22025;BME280;11176;51.448;6.650;2023-07-16T06:03:40;36965.53;;;-141.29;75.43
22025;BME280;11176;51.448;6.650;2023-07-16T06:06:10;36931.66;;;-141.29;74.29
22025;BME280;11176;51.448;6.650;2023-07-16T06:08:36;36927.66;;;-141.29;74.13
22025;BME280;11176;51.448;6.650;2023-07-16T06:11:04;36931.66;;;-141.29;74.53
22025;BME280;11176;51.448;6.650;2023-07-16T06:13:30;36899.75;;;-141.29;74.39
22025;BME280;11176;51.448;6.650;2023-07-16T06:15:57;36899.75;;;-141.29;74.02
22025;BME280;11176;51.448;6.650;2023-07-16T06:18:24;36915.69;;;-141.29;74.31
22025;BME280;11176;51.448;6.650;2023-07-16T06:20:50;36895.75;;;-141.29;73.68
22025;BME280;11176;51.448;6.650;2023-07-16T06:23:18;36917.69;;;-141.29;73.28
22025;BME280;11176;51.448;6.650;2023-07-16T06:25:45;36899.75;;;-141.29;73.36
22025;BME280;11176;51.448;6.650;2023-07-16T06:28:14;36899.75;;;-141.29;72.72
22025;BME280;11176;51.448;6.650;2023-07-16T06:30:41;36891.78;;;-141.29;72.37
22025;BME280;11176;51.448;6.650;2023-07-16T06:33:07;36879.81;;;-141.29;71.54
22025;BME280;11176;51.448;6.650;2023-07-16T06:35:34;36835.97;;;-141.29;71.61
22025;BME280;11176;51.448;6.650;2023-07-16T06:38:01;36875.84;;;-141.29;71.49
22025;BME280;11176;51.448;6.650;2023-07-16T06:40:28;36828.00;;;-141.29;70.71
22025;BME280;11176;51.448;6.650;2023-07-16T06:42:55;36833.97;;;-141.29;70.88
22025;BME280;11176;51.448;6.650;2023-07-16T06:45:22;36851.91;;;-141.29;70.95
22025;BME280;11176;51.448;6.650;2023-07-16T06:47:48;36857.88;;;-141.29;70.99
22025;BME280;11176;51.448;6.650;2023-07-16T06:50:15;36828.00;;;-141.29;70.02
22025;BME280;11176;51.448;6.650;2023-07-16T06:52:42;36808.06;;;-141.29;69.22
22025;BME280;11176;51.448;6.650;2023-07-16T06:55:08;36808.06;;;-141.29;69.51
22025;BME280;11176;51.448;6.650;2023-07-16T06:57:35;36800.09;;;-141.29;70.28
22025;BME280;11176;51.448;6.650;2023-07-16T07:00:02;36766.19;;;-141.29;68.17
22025;BME280;11176;51.448;6.650;2023-07-16T07:02:29;36780.16;;;-141.29;68.14
22025;BME280;11176;51.448;6.650;2023-07-16T07:04:55;36752.25;;;-141.29;67.65
22025;BME280;11176;51.448;6.650;2023-07-16T07:07:22;36788.13;;;-141.29;68.01
22025;BME280;11176;51.448;6.650;2023-07-16T07:09:48;36756.22;;;-141.29;68.37
22025;BME280;11176;51.448;6.650;2023-07-16T07:12:15;36788.13;;;-141.29;67.43
22025;BME280;11176;51.448;6.650;2023-07-16T07:14:41;36796.09;;;-141.29;67.71
22025;BME280;11176;51.448;6.650;2023-07-16T07:17:08;36714.38;;;-141.29;67.06
22025;BME280;11176;51.448;6.650;2023-07-16T07:19:34;36768.19;;;-141.29;66.96
22025;BME280;11176;51.448;6.650;2023-07-16T07:22:01;36730.31;;;-141.29;66.52
22025;BME280;11176;51.448;6.650;2023-07-16T07:24:27;36762.22;;;-141.29;67.04
22025;BME280;11176;51.448;6.650;2023-07-16T07:26:54;36728.31;;;-141.29;66.26
22025;BME280;11176;51.448;6.650;2023-07-16T07:29:21;36724.34;;;-141.29;65.29
22025;BME280;11176;51.448;6.650;2023-07-16T07:31:48;36718.34;;;-141.29;65.85
22025;BME280;11176;51.448;6.650;2023-07-16T07:34:14;36744.28;;;-141.29;65.35
22025;BME280;11176;51.448;6.650;2023-07-16T07:36:40;36724.34;;;-141.29;64.53
22025;BME280;11176;51.448;6.650;2023-07-16T07:39:07;36716.38;;;-141.29;64.22
22025;BME280;11176;51.448;6.650;2023-07-16T07:41:34;36712.38;;;-141.29;64.35
22025;BME280;11176;51.448;6.650;2023-07-16T07:44:00;36728.31;;;-141.29;65.06
22025;BME280;11176;51.448;6.650;2023-07-16T07:46:27;36742.28;;;-141.29;66.30
22025;BME280;11176;51.448;6.650;2023-07-16T07:48:53;36720.34;;;-141.29;65.78
22025;BME280;11176;51.448;6.650;2023-07-16T07:51:20;36730.31;;;-141.29;64.74
22025;BME280;11176;51.448;6.650;2023-07-16T07:53:47;36722.34;;;-141.29;63.92
22025;BME280;11176;51.448;6.650;2023-07-16T07:56:13;36692.44;;;-141.29;63.79
22025;BME280;11176;51.448;6.650;2023-07-16T07:58:40;36708.41;;;-141.29;63.94
22025;BME280;11176;51.448;6.650;2023-07-16T08:01:07;36692.44;;;-141.29;64.15
22025;BME280;11176;51.448;6.650;2023-07-16T08:03:34;36692.44;;;-141.29;64.63
22025;BME280;11176;51.448;6.650;2023-07-16T08:06:02;36720.34;;;-141.29;63.68
22025;BME280;11176;51.448;6.650;2023-07-16T08:08:28;36708.41;;;-141.29;63.87
22025;BME280;11176;51.448;6.650;2023-07-16T08:10:55;36712.38;;;-141.29;64.00
22025;BME280;11176;51.448;6.650;2023-07-16T08:13:21;36752.25;;;-141.29;63.79
22025;BME280;11176;51.448;6.650;2023-07-16T08:15:48;36680.50;;;-141.29;63.50
22025;BME280;11176;51.448;6.650;2023-07-16T08:18:15;36708.41;;;-141.29;63.51
22025;BME280;11176;51.448;6.650;2023-07-16T08:20:41;36640.63;;;-141.29;60.83
22025;BME280;11176;51.448;6.650;2023-07-16T08:23:08;36642.63;;;-141.29;60.41
22025;BME280;11176;51.448;6.650;2023-07-16T08:25:35;36642.63;;;-141.29;60.35
22025;BME280;11176;51.448;6.650;2023-07-16T08:28:02;36642.63;;;-141.29;60.31
22025;BME280;11176;51.448;6.650;2023-07-16T08:30:29;36642.63;;;-141.29;60.34
22025;BME280;11176;51.448;6.650;2023-07-16T08:32:55;36614.72;;;-141.29;59.10
22025;BME280;11176;51.448;6.650;2023-07-16T08:35:22;36628.66;;;-141.29;59.73
22025;BME280;11176;51.448;6.650;2023-07-16T08:37:48;36584.81;;;-141.29;59.29
22025;BME280;11176;51.448;6.650;2023-07-16T08:40:15;36628.66;;;-141.29;59.98
22025;BME280;11176;51.448;6.650;2023-07-16T08:42:45;36638.63;;;-141.29;59.84
22025;BME280;11176;51.448;6.650;2023-07-16T08:45:13;36644.63;;;-141.29;59.20
22025;BME280;11176;51.448;6.650;2023-07-16T08:47:40;36638.63;;;-141.29;59.45
22025;BME280;11176;51.448;6.650;2023-07-16T08:50:07;36596.78;;;-141.29;58.44
22025;BME280;11176;51.448;6.650;2023-07-16T08:52:35;36608.72;;;-141.29;57.79
22025;BME280;11176;51.448;6.650;2023-07-16T08:55:02;36624.69;;;-141.29;57.71
22025;BME280;11176;51.448;6.650;2023-07-16T08:57:29;36584.81;;;-141.29;58.26
22025;BME280;11176;51.448;6.650;2023-07-16T08:59:57;36610.72;;;-141.29;58.41
22025;BME280;11176;51.448;6.650;2023-07-16T09:02:24;36616.72;;;-141.29;57.92
22025;BME280;11176;51.448;6.650;2023-07-16T09:04:51;36584.81;;;-141.29;57.92
22025;BME280;11176;51.448;6.650;2023-07-16T09:07:18;36648.59;;;-141.29;58.55
22025;BME280;11176;51.448;6.650;2023-07-16T09:09:58;36608.72;;;-141.29;56.92
22025;BME280;11176;51.448;6.650;2023-07-16T09:12:27;36584.81;;;-141.29;55.82
22025;BME280;11176;51.448;6.650;2023-07-16T09:14:55;36584.81;;;-141.29;56.04
22025;BME280;11176;51.448;6.650;2023-07-16T09:17:23;36598.75;;;-141.29;56.29
22025;BME280;11176;51.448;6.650;2023-07-16T09:19:51;36598.75;;;-141.29;55.78
22025;BME280;11176;51.448;6.650;2023-07-16T09:22:18;36570.88;;;-141.29;55.60
22025;BME280;11176;51.448;6.650;2023-07-16T09:24:46;36544.94;;;-141.29;54.79
22025;BME280;11176;51.448;6.650;2023-07-16T09:27:13;36566.88;;;-141.29;54.95
22025;BME280;11176;51.448;6.650;2023-07-16T09:29:40;36556.91;;;-141.29;54.95
22025;BME280;11176;51.448;6.650;2023-07-16T09:32:07;36592.78;;;-141.29;55.45
22025;BME280;11176;51.448;6.650;2023-07-16T09:34:34;36632.66;;;-141.29;56.31
22025;BME280;11176;51.448;6.650;2023-07-16T09:37:01;36560.91;;;-141.29;54.55
22025;BME280;11176;51.448;6.650;2023-07-16T09:39:28;36596.78;;;-141.29;55.71
22025;BME280;11176;51.448;6.650;2023-07-16T09:41:54;36580.81;;;-141.29;54.68
22025;BME280;11176;51.448;6.650;2023-07-16T09:44:23;36572.84;;;-141.29;53.42
22025;BME280;11176;51.448;6.650;2023-07-16T09:46:50;36548.94;;;-141.29;53.02
22025;BME280;11176;51.448;6.650;2023-07-16T09:49:17;36596.78;;;-141.29;55.54
22025;BME280;11176;51.448;6.650;2023-07-16T09:51:44;36542.97;;;-141.29;52.73
22025;BME280;11176;51.448;6.650;2023-07-16T09:54:14;36556.91;;;-141.29;53.31
22025;BME280;11176;51.448;6.650;2023-07-16T09:56:46;36536.97;;;-141.29;52.08
22025;BME280;11176;51.448;6.650;2023-07-16T09:59:16;36560.91;;;-141.29;52.18
22025;BME280;11176;51.448;6.650;2023-07-16T10:01:43;36552.94;;;-141.29;52.43
22025;BME280;11176;51.448;6.650;2023-07-16T10:04:17;36536.97;;;-141.29;51.36
22025;BME280;11176;51.448;6.650;2023-07-16T10:06:59;36513.06;;;-141.29;50.63
22025;BME280;11176;51.448;6.650;2023-07-16T10:09:36;36562.88;;;-141.29;51.48
22025;BME280;11176;51.448;6.650;2023-07-16T10:12:17;36507.09;;;-141.29;49.95
22025;BME280;11176;51.448;6.650;2023-07-16T10:14:49;36548.94;;;-141.29;50.35
22025;BME280;11176;51.448;6.650;2023-07-16T10:17:20;36558.91;;;-141.29;49.22
22025;BME280;11176;51.448;6.650;2023-07-16T10:19:56;36497.13;;;-141.29;49.25
22025;BME280;11176;51.448;6.650;2023-07-16T10:22:34;36536.97;;;-141.29;49.77
22025;BME280;11176;51.448;6.650;2023-07-16T10:25:05;36552.94;;;-141.29;49.54
22025;BME280;11176;51.448;6.650;2023-07-16T10:27:33;36554.91;;;-141.29;48.71
22025;BME280;11176;51.448;6.650;2023-07-16T10:30:01;36535.00;;;-141.29;49.01
22025;BME280;11176;51.448;6.650;2023-07-16T10:32:32;36505.09;;;-141.29;48.55
22025;BME280;11176;51.448;6.650;2023-07-16T10:34:58;36525.03;;;-141.29;48.80
22025;BME280;11176;51.448;6.650;2023-07-16T10:37:26;36529.00;;;-141.29;49.07
22025;BME280;11176;51.448;6.650;2023-07-16T10:39:55;36533.00;;;-141.29;49.00
22025;BME280;11176;51.448;6.650;2023-07-16T10:42:27;36525.03;;;-141.29;48.94
22025;BME280;11176;51.448;6.650;2023-07-16T10:44:55;36535.00;;;-141.29;48.99
22025;BME280;11176;51.448;6.650;2023-07-16T10:47:28;36509.06;;;-141.29;48.19
22025;BME280;11176;51.448;6.650;2023-07-16T10:49:55;36501.09;;;-141.29;47.87
22025;BME280;11176;51.448;6.650;2023-07-16T10:52:23;36501.09;;;-141.29;47.79
22025;BME280;11176;51.448;6.650;2023-07-16T10:54:50;36465.22;;;-141.29;47.73
22025;BME280;11176;51.448;6.650;2023-07-16T10:57:21;36489.16;;;-141.29;48.29
22025;BME280;11176;51.448;6.650;2023-07-16T10:59:50;36525.03;;;-141.29;48.33
22025;BME280;11176;51.448;6.650;2023-07-16T11:02:18;36501.09;;;-141.29;48.12
22025;BME280;11176;51.448;6.650;2023-07-16T11:04:46;36501.09;;;-141.29;47.52
22025;BME280;11176;51.448;6.650;2023-07-16T11:07:13;36463.22;;;-141.29;47.60
22025;BME280;11176;51.448;6.650;2023-07-16T11:12:12;36477.19;;;-141.29;48.16
22025;BME280;11176;51.448;6.650;2023-07-16T11:14:47;36469.22;;;-141.29;47.97
22025;BME280;11176;51.448;6.650;2023-07-16T11:17:14;36433.34;;;-141.29;46.41
22025;BME280;11176;51.448;6.650;2023-07-16T11:19:45;36431.34;;;-141.29;46.38
22025;BME280;11176;51.448;6.650;2023-07-16T11:22:13;36449.28;;;-141.29;47.48
22025;BME280;11176;51.448;6.650;2023-07-16T11:24:47;36449.28;;;-141.29;47.17
22025;BME280;11176;51.448;6.650;2023-07-16T11:27:15;36447.28;;;-141.29;47.18
22025;BME280;11176;51.448;6.650;2023-07-16T11:29:53;36429.34;;;-141.29;46.98
22025;BME280;11176;51.448;6.650;2023-07-16T11:35:00;36473.19;;;-141.29;47.09
22025;BME280;11176;51.448;6.650;2023-07-16T11:37:28;36473.19;;;-141.29;46.60
22025;BME280;11176;51.448;6.650;2023-07-16T11:39:57;36449.28;;;-141.29;46.71
22025;BME280;11176;51.448;6.650;2023-07-16T11:42:31;36433.34;;;-141.29;45.30
22025;BME280;11176;51.448;6.650;2023-07-16T11:44:59;36425.38;;;-141.29;45.94
22025;BME280;11176;51.448;6.650;2023-07-16T11:47:26;36485.16;;;-141.29;48.25
22025;BME280;11176;51.448;6.650;2023-07-16T11:49:53;36473.19;;;-141.29;46.29
22025;BME280;11176;51.448;6.650;2023-07-16T11:52:21;36411.41;;;-141.29;45.11
22025;BME280;11176;51.448;6.650;2023-07-16T11:54:47;36435.34;;;-141.29;44.90
22025;BME280;11176;51.448;6.650;2023-07-16T11:57:15;36421.38;;;-141.29;45.17
22025;BME280;11176;51.448;6.650;2023-07-16T11:59:42;36445.28;;;-141.29;45.52
22025;BME280;11176;51.448;6.650;2023-07-16T12:02:09;36397.47;;;-141.29;44.73
22025;BME280;11176;51.448;6.650;2023-07-16T12:04:35;36445.28;;;-141.29;45.22
22025;BME280;11176;51.448;6.650;2023-07-16T12:07:02;36455.25;;;-141.29;46.08
22025;BME280;11176;51.448;6.650;2023-07-16T12:09:29;36471.22;;;-141.29;45.87
22025;BME280;11176;51.448;6.650;2023-07-16T12:11:56;36421.38;;;-141.29;45.41
22025;BME280;11176;51.448;6.650;2023-07-16T12:14:23;36481.16;;;-141.29;45.42
22025;BME280;11176;51.448;6.650;2023-07-16T12:16:49;36425.38;;;-141.29;45.57
22025;BME280;11176;51.448;6.650;2023-07-16T12:19:16;36425.38;;;-141.29;44.88
22025;BME280;11176;51.448;6.650;2023-07-16T12:21:42;36403.44;;;-141.29;44.82
22025;BME280;11176;51.448;6.650;2023-07-16T12:24:10;36447.28;;;-141.29;44.40
22025;BME280;11176;51.448;6.650;2023-07-16T12:26:37;36391.47;;;-141.29;43.84
22025;BME280;11176;51.448;6.650;2023-07-16T12:29:03;36385.50;;;-141.29;44.12
22025;BME280;11176;51.448;6.650;2023-07-16T12:31:31;36437.31;;;-141.29;44.53
22025;BME280;11176;51.448;6.650;2023-07-16T12:33:59;36451.28;;;-141.29;45.49
22025;BME280;11176;51.448;6.650;2023-07-16T12:36:25;36461.25;;;-141.29;45.56
22025;BME280;11176;51.448;6.650;2023-07-16T12:38:52;36465.22;;;-141.29;45.14
22025;BME280;11176;51.448;6.650;2023-07-16T12:41:18;36453.28;;;-141.29;44.19
22025;BME280;11176;51.448;6.650;2023-07-16T12:43:46;36421.38;;;-141.29;43.63
22025;BME280;11176;51.448;6.650;2023-07-16T12:46:13;36417.38;;;-141.29;43.67
22025;BME280;11176;51.448;6.650;2023-07-16T12:48:40;36453.28;;;-141.29;43.99
22025;BME280;11176;51.448;6.650;2023-07-16T12:51:08;36475.19;;;-141.29;43.60
22025;BME280;11176;51.448;6.650;2023-07-16T12:53:34;36475.19;;;-141.29;42.99